• Join FlightAware (Why Join?)
  • Login
  • US Flag 
04:02PM EDT


 

Airport Tracker/Info


-or-


 

Live Flight TrackerFlight Track Log ✈ AWI3970 ✈ 01-Sep-2013 ✈ KPHL - KALB

Flight Track Log - Related Links

Times and Time Zones

All times are in EDT time to prevent confusion due to time zone crossing. See the AWI3970 flight status page for this flight to view local times or setup timezone preferences in your user account.

Time Position Orientation Groundspeed Altitude Reporting Facility
EDT Latitude Longitude Course Direction KTS MPH feet Rate Location/Type
11:06PM 39.8667 -75.2667 37° Northeast 150 173 700  Level Philadelphia TRACON
11:08PM 39.8333 -75.3333 237° Southwest 200 230 3,500 2,460 Climbing Philadelphia TRACON
11:09PM 39.8119 -74.8428 105° East  Level FlightAware Approximate
11:09PM 39.7833 -75.3667 207° Southwest 228 262 6,200  Level Philadelphia TRACON
11:10PM 39.7855 -74.7110 105° East  Level FlightAware Approximate
11:10PM 39.7833 -75.2833 90° East 236 272 8,600  Level Philadelphia TRACON
11:11PM 39.8594 -74.6240 37° Northeast  Level FlightAware Approximate
11:11PM 39.7833 -75.2000 90° East 240 276 11,100  Level Philadelphia TRACON
11:12PM 39.9459 -74.5542 37° Northeast  Level FlightAware Approximate
11:13PM 39.7875 -74.9447 89° East 333 383 12,000  Level New York Center
11:14PM 39.7894 -74.8286 89° East 347 399 12,000 1,140 Level New York Center
11:15PM 39.8019 -74.7078 82° East 342 394 14,300 2,100 Climbing New York Center
11:16PM 39.8731 -74.6333 39° Northeast 296 341 16,200 1,680 Climbing New York Center
11:17PM 39.9506 -74.5617 35° Northeast 313 360 17,700 1,620 Climbing New York Center
11:18PM 40.0236 -74.4925 36° Northeast 335 386 19,500 1,740 Climbing New York Center
11:19PM 40.1117 -74.4050 37° Northeast 353 406 21,200 1,380 Climbing New York Center
11:20PM 40.1936 -74.3222 38° Northeast 358 412 22,300 900 Climbing New York Center
11:21PM 40.2772 -74.2369 38° Northeast 370 426 23,000 240 Climbing New York Center
11:23PM 40.4464 -74.0625 38° Northeast 426 490 23,000  Level Boston Center
11:24PM 40.5494 -74.0050 23° Northeast 434 499 23,000  Level Boston Center
11:25PM 40.6647 -73.9394 23° Northeast 424 488 23,000  Level Boston Center
11:26PM 40.7697 -73.8789 24° Northeast 409 471 23,000 -60 Level Boston Center
11:27PM 40.8564 -73.7903 38° Northeast 396 456 22,900  Descending Boston Center
11:28PM 40.9367 -73.6875 44° Northeast 391 450 23,000  Climbing Boston Center
11:29PM 41.0150 -73.5928 42° Northeast 391 450 23,000  Level Boston Center
11:30PM 41.0950 -73.4922 43° Northeast 391 450 23,000  Level Boston Center
11:31PM 41.1894 -73.4247 28° Northeast 381 438 23,000  Level Boston Center
11:32PM 41.2956 -73.4569 347° North 359 413 23,000 -660 Level Boston Center
11:33PM 41.4014 -73.4861 348° North 370 426 21,800 -1,380 Descending Boston Center
11:34PM 41.5033 -73.5072 351° North 370 426 20,300 -1,560 Descending Boston Center
11:35PM 41.5989 -73.5311 349° North 357 411 18,700 -1,620 Descending Boston Center
11:36PM 41.6925 -73.5550 349° North 346 398 17,200 -1,560 Descending Boston Center
11:37PM 41.7842 -73.5733 352° North 333 383 15,600 -1,500 Descending Boston Center
11:38PM 41.8733 -73.5972 349° North 333 383 14,200 -1,500 Descending Boston Center
11:38PM 41.9378 -73.6122 350° North 318 366 13,000 -1,500 Descending Boston Center
11:40PM 42.0378 -73.6364 350° North 311 358 11,300 -960 Descending Boston Center
11:41PM 42.1231 -73.6550 351° North 309 356 11,000 -180 Descending Boston Center
11:42PM 42.2061 -73.6789 348° North 307 353 11,000 -660 Level Boston Center
11:43PM 42.2892 -73.7086 345° North 308 354 9,800 -1,320 Descending Boston Center
11:44PM 42.3681 -73.7328 347° North 303 349 8,300 -1,860 Descending Boston Center
11:45PM 42.4553 -73.7628 346° North 292 336 6,000 -1,920 Descending Boston Center
11:46PM 42.5175 -73.7836 346° North 271 312 4,500 -1,500 Descending Boston Center
11:47PM 42.5861 -73.7994 350° North 234 269 3,000 -1,140 Descending Boston Center
11:48PM 42.6339 -73.8031 357° North 215 247 2,300 -900 Descending Boston Center
11:49PM 42.6944 -73.8072 357° North 185 213 1,200 -1,020 Descending Boston Center